createdAt,value
2023-05-25T00:01:39.317Z,5.22
2023-05-25T00:04:06.151Z,5.05
2023-05-25T00:06:33.258Z,5.25
2023-05-25T00:08:59.962Z,4.75
2023-05-25T00:11:27.225Z,4.95
2023-05-25T00:13:54.108Z,5.40
2023-05-25T00:16:20.987Z,4.88
2023-05-25T00:18:48.805Z,5.00
2023-05-25T00:21:16.242Z,5.25
2023-05-25T00:23:43.334Z,4.35
2023-05-25T00:26:10.039Z,4.53
2023-05-25T00:28:36.624Z,4.60
2023-05-25T00:31:03.583Z,4.70
2023-05-25T00:33:30.257Z,5.07
2023-05-25T00:35:57.354Z,4.47
2023-05-25T00:38:24.204Z,4.53
2023-05-25T00:40:56.423Z,5.28
2023-05-25T00:43:23.298Z,4.85
2023-05-25T00:45:51.786Z,4.97
2023-05-25T00:48:18.857Z,4.70
2023-05-25T00:50:45.938Z,4.95
2023-05-25T00:53:14.258Z,4.93
2023-05-25T00:55:46.140Z,4.63
2023-05-25T00:58:13.799Z,5.25
2023-05-25T01:00:42.639Z,4.78
2023-05-25T01:03:18.002Z,4.53
2023-05-25T01:05:48.697Z,4.55
2023-05-25T01:08:19.549Z,4.63
2023-05-25T01:10:54.920Z,4.78
2023-05-25T01:13:21.711Z,4.65
2023-05-25T01:15:49.795Z,4.85
2023-05-25T01:18:17.925Z,5.15
2023-05-25T01:21:13.366Z,5.03
2023-05-25T01:23:47.852Z,5.45
2023-05-25T01:26:18.155Z,4.82
2023-05-25T01:28:51.538Z,5.25
2023-05-25T01:31:21.423Z,4.60
2023-05-25T01:33:51.056Z,4.90
2023-05-25T01:36:18.894Z,5.03
2023-05-25T01:38:45.597Z,5.72
2023-05-25T01:41:12.291Z,5.07
2023-05-25T01:43:38.951Z,5.00
2023-05-25T01:46:37.731Z,4.80
2023-05-25T01:49:08.725Z,4.70
2023-05-25T01:51:56.217Z,4.47
2023-05-25T01:54:30.664Z,4.80
2023-05-25T01:57:01.404Z,4.75
2023-05-25T01:59:30.066Z,5.32
2023-05-25T02:01:58.032Z,5.50
2023-05-25T02:04:26.281Z,4.55
2023-05-25T02:06:52.979Z,4.93
2023-05-25T02:09:19.647Z,4.90
2023-05-25T02:11:46.269Z,4.60
2023-05-25T02:14:13.462Z,4.88
2023-05-25T02:16:40.074Z,5.00
2023-05-25T02:19:07.303Z,4.78
2023-05-25T02:21:36.444Z,4.65
2023-05-25T02:24:03.121Z,5.15
2023-05-25T02:26:29.743Z,5.72
2023-05-25T02:28:56.352Z,4.70
2023-05-25T02:31:22.996Z,4.70
2023-05-25T02:33:49.666Z,5.53
2023-05-25T02:36:16.424Z,4.88
2023-05-25T02:38:43.017Z,4.95
2023-05-25T02:41:09.578Z,5.25
2023-05-25T02:43:36.305Z,5.10
2023-05-25T02:46:02.897Z,5.20
2023-05-25T02:48:29.531Z,5.18
2023-05-25T02:50:56.493Z,4.90
2023-05-25T02:53:23.080Z,4.97
2023-05-25T02:55:49.646Z,5.30
2023-05-25T02:58:16.635Z,5.30
2023-05-25T03:00:43.243Z,5.07
2023-05-25T03:03:10.030Z,4.55
2023-05-25T03:05:36.807Z,5.60
2023-05-25T03:08:03.407Z,5.05
2023-05-25T03:10:30.023Z,5.15
2023-05-25T03:12:56.585Z,5.40
2023-05-25T03:15:23.342Z,4.88
2023-05-25T03:17:50.495Z,4.93
2023-05-25T03:20:17.148Z,4.97
2023-05-25T03:22:43.741Z,5.10
2023-05-25T03:25:13.572Z,4.90
2023-05-25T03:27:40.559Z,5.65
2023-05-25T03:30:08.062Z,5.00
2023-05-25T03:32:34.691Z,5.15
2023-05-25T03:35:01.273Z,5.13
2023-05-25T03:37:27.831Z,4.60
2023-05-25T03:39:54.379Z,4.80
2023-05-25T03:42:20.934Z,5.07
2023-05-25T03:44:47.516Z,5.82
2023-05-25T03:47:14.140Z,5.15
2023-05-25T03:49:40.733Z,4.95
2023-05-25T03:52:07.448Z,5.05
2023-05-25T03:54:34.228Z,5.53
2023-05-25T03:57:11.062Z,5.10
2023-05-25T03:59:37.628Z,5.85
2023-05-25T04:02:04.330Z,4.75
2023-05-25T04:04:30.915Z,5.28
2023-05-25T04:06:57.441Z,5.25
2023-05-25T04:09:23.978Z,4.93
2023-05-25T04:11:51.049Z,5.40
2023-05-25T04:14:17.960Z,4.65
2023-05-25T04:16:46.017Z,5.07
2023-05-25T04:19:12.926Z,5.32
2023-05-25T04:21:39.482Z,4.70
2023-05-25T04:24:07.743Z,5.32
2023-05-25T04:26:34.365Z,4.38
2023-05-25T04:29:02.446Z,5.00
2023-05-25T04:31:29.261Z,5.32
2023-05-25T04:33:56.198Z,5.10
2023-05-25T04:36:23.789Z,5.07
2023-05-25T04:38:54.811Z,4.65
2023-05-25T04:41:21.435Z,4.63
2023-05-25T04:44:03.945Z,4.82
2023-05-25T04:46:32.313Z,4.82
2023-05-25T04:48:58.943Z,4.78
2023-05-25T04:51:25.532Z,5.43
2023-05-25T04:53:52.181Z,5.90
2023-05-25T04:56:18.764Z,4.80
2023-05-25T04:58:45.403Z,4.97
2023-05-25T05:01:12.054Z,4.75
2023-05-25T05:03:38.701Z,5.53
2023-05-25T05:06:05.445Z,5.13
2023-05-25T05:08:32.103Z,4.43
2023-05-25T05:10:58.685Z,5.00
2023-05-25T05:13:25.276Z,4.80
2023-05-25T05:15:51.803Z,4.07
2023-05-25T05:18:18.386Z,6.07
2023-05-25T05:20:45.052Z,4.80
2023-05-25T05:23:11.905Z,4.00
2023-05-25T05:25:38.518Z,4.57
2023-05-25T05:28:05.208Z,4.95
2023-05-25T05:30:31.753Z,4.25
2023-05-25T05:32:58.475Z,4.47
2023-05-25T05:35:25.096Z,4.95
2023-05-25T05:37:51.657Z,3.92
2023-05-25T05:40:18.685Z,4.03
2023-05-25T05:42:45.525Z,4.07
2023-05-25T05:45:12.166Z,4.30
2023-05-25T05:47:38.845Z,4.60
2023-05-25T05:50:06.626Z,4.13
2023-05-25T05:52:33.267Z,3.88
2023-05-25T05:54:59.869Z,4.28
2023-05-25T05:57:26.481Z,3.67
2023-05-25T05:59:53.026Z,4.13
2023-05-25T06:02:19.734Z,4.20
2023-05-25T06:04:46.417Z,4.32
2023-05-25T06:07:13.010Z,4.10
2023-05-25T06:09:39.570Z,4.05
2023-05-25T06:12:06.644Z,3.80
2023-05-25T06:14:33.281Z,4.30
2023-05-25T06:17:00.012Z,3.85
2023-05-25T06:19:26.821Z,3.90
2023-05-25T06:21:53.440Z,4.00
2023-05-25T06:24:20.004Z,4.40
2023-05-25T06:26:46.560Z,3.53
2023-05-25T06:29:17.044Z,3.92
2023-05-25T06:31:44.152Z,3.88
2023-05-25T06:34:10.974Z,4.65
2023-05-25T06:36:38.035Z,4.32
2023-05-25T06:39:04.635Z,4.20
2023-05-25T06:41:31.298Z,3.28
2023-05-25T06:43:57.863Z,3.45
2023-05-25T06:46:24.459Z,4.45
2023-05-25T06:48:51.059Z,3.78
2023-05-25T06:51:17.689Z,3.88
2023-05-25T06:53:44.589Z,4.13
2023-05-25T06:56:11.239Z,3.83
2023-05-25T06:58:38.049Z,3.58
2023-05-25T07:01:04.760Z,3.25
2023-05-25T07:03:32.674Z,3.65
2023-05-25T07:05:59.876Z,3.60
2023-05-25T07:08:26.509Z,3.53
2023-05-25T07:10:53.092Z,3.45
2023-05-25T07:13:19.731Z,3.60
2023-05-25T07:15:47.275Z,3.17
2023-05-25T07:18:14.509Z,3.65
2023-05-25T07:20:44.474Z,3.33
2023-05-25T07:23:11.972Z,3.08
2023-05-25T07:25:39.400Z,3.65
2023-05-25T07:28:06.383Z,3.47
2023-05-25T07:30:33.374Z,3.47
2023-05-25T07:33:01.336Z,2.90
2023-05-25T07:35:28.360Z,3.50
2023-05-25T07:37:59.048Z,3.38
2023-05-25T07:40:26.086Z,3.25
2023-05-25T07:42:53.582Z,3.72
2023-05-25T07:45:21.239Z,3.15
2023-05-25T07:47:48.089Z,3.63
2023-05-25T07:50:15.589Z,3.25
2023-05-25T07:52:42.518Z,4.03
2023-05-25T07:55:09.803Z,3.22
2023-05-25T07:57:36.629Z,3.55
2023-05-25T08:00:11.161Z,3.30
2023-05-25T08:02:37.934Z,3.67
2023-05-25T08:05:06.251Z,3.42
2023-05-25T08:07:34.107Z,2.97
2023-05-25T08:10:01.056Z,3.53
2023-05-25T08:12:42.937Z,3.13
2023-05-25T08:15:13.661Z,3.58
2023-05-25T08:17:40.806Z,2.97
2023-05-25T08:20:09.063Z,3.92
2023-05-25T08:22:36.233Z,3.70
2023-05-25T08:25:04.618Z,3.58
2023-05-25T08:27:33.504Z,3.45
2023-05-25T08:30:02.274Z,4.10
2023-05-25T08:32:28.888Z,3.42
2023-05-25T08:34:55.741Z,3.03
2023-05-25T08:37:23.663Z,2.80
2023-05-25T08:39:50.599Z,3.20
2023-05-25T08:42:17.229Z,2.83
2023-05-25T08:44:43.969Z,3.33
2023-05-25T08:47:12.465Z,3.55
2023-05-25T08:49:41.403Z,3.40
2023-05-25T08:52:13.571Z,3.03
2023-05-25T08:57:20.886Z,3.20
2023-05-25T08:59:56.551Z,3.35
2023-05-25T09:02:50.036Z,3.50
2023-05-25T09:05:17.480Z,3.97
2023-05-25T09:07:44.268Z,3.80
2023-05-25T09:10:14.687Z,3.63
2023-05-25T09:12:42.613Z,3.38
2023-05-25T09:15:12.854Z,3.47
2023-05-25T09:17:41.407Z,3.25
2023-05-25T09:20:11.003Z,3.40
2023-05-25T09:22:37.649Z,3.10
2023-05-25T09:25:08.073Z,2.92
2023-05-25T09:27:37.504Z,2.97
2023-05-25T09:30:05.410Z,3.97
2023-05-25T09:32:32.517Z,2.83
2023-05-25T09:35:10.133Z,3.63
2023-05-25T09:37:37.651Z,3.10
2023-05-25T09:40:06.260Z,3.00
2023-05-25T09:42:36.835Z,3.17
2023-05-25T09:45:04.805Z,3.33
2023-05-25T09:47:31.891Z,3.63
2023-05-25T09:49:59.125Z,3.25
2023-05-25T09:52:26.117Z,3.60
2023-05-25T09:54:52.894Z,2.67
2023-05-25T09:57:20.597Z,3.08
2023-05-25T09:59:47.645Z,2.75
2023-05-25T10:02:15.405Z,3.63
2023-05-25T10:04:42.299Z,3.28
2023-05-25T10:07:09.596Z,3.20
2023-05-25T10:09:43.428Z,3.05
2023-05-25T10:12:11.311Z,3.28
2023-05-25T10:14:38.699Z,3.47
2023-05-25T10:17:07.196Z,3.28
2023-05-25T10:19:42.873Z,2.85
2023-05-25T10:22:44.190Z,3.20
2023-05-25T10:25:18.163Z,3.67
2023-05-25T10:27:48.255Z,3.10
2023-05-25T10:30:16.196Z,3.08
2023-05-25T10:32:44.811Z,3.22
2023-05-25T10:35:12.248Z,2.70
2023-05-25T10:37:40.241Z,3.30
2023-05-25T10:40:10.346Z,3.20
2023-05-25T10:42:38.253Z,3.20
2023-05-25T10:45:07.767Z,3.13
2023-05-25T10:47:38.987Z,3.08
2023-05-25T10:50:06.343Z,3.13
2023-05-25T10:52:33.246Z,3.10
2023-05-25T10:55:05.353Z,2.90
2023-05-25T10:57:32.752Z,3.20
2023-05-25T11:00:06.889Z,3.25
2023-05-25T11:02:56.221Z,2.80
2023-05-25T11:05:26.099Z,2.72
2023-05-25T11:08:05.102Z,2.50
2023-05-25T11:10:42.097Z,3.05
2023-05-25T11:13:35.098Z,3.47
2023-05-25T11:16:27.484Z,3.47
2023-05-25T11:18:58.023Z,2.88
2023-05-25T11:21:27.630Z,3.13
2023-05-25T11:23:54.324Z,2.85
2023-05-25T11:26:22.697Z,2.97
2023-05-25T11:28:51.831Z,2.75
2023-05-25T11:31:41.518Z,2.70
2023-05-25T11:34:11.914Z,3.38
2023-05-25T11:36:39.397Z,4.57
2023-05-25T11:39:16.938Z,2.90
2023-05-25T11:41:55.462Z,2.85
2023-05-25T11:44:33.986Z,2.83
2023-05-25T11:47:02.327Z,3.17
2023-05-25T11:49:29.124Z,2.70
2023-05-25T11:51:57.589Z,3.08
2023-05-25T11:54:26.300Z,3.03
2023-05-25T11:56:53.923Z,3.42
2023-05-25T11:59:20.611Z,3.22
2023-05-25T12:01:59.799Z,3.40
2023-05-25T12:04:26.703Z,3.83
2023-05-25T12:06:58.777Z,3.10
2023-05-25T12:09:25.382Z,3.65
2023-05-25T12:11:52.102Z,3.45
2023-05-25T12:14:18.965Z,3.17
2023-05-25T12:16:45.934Z,3.22
2023-05-25T12:19:13.318Z,3.47
2023-05-25T12:21:41.457Z,3.28
2023-05-25T12:24:09.690Z,3.03
2023-05-25T12:26:47.622Z,3.25
2023-05-25T12:29:14.284Z,3.22
2023-05-25T12:31:40.953Z,3.10
2023-05-25T12:34:18.325Z,3.17
2023-05-25T12:36:51.966Z,2.55
2023-05-25T12:39:30.922Z,3.15
2023-05-25T12:42:03.740Z,2.80
2023-05-25T12:44:32.506Z,3.08
2023-05-25T12:47:23.436Z,3.38
2023-05-25T12:49:52.491Z,2.90
2023-05-25T12:52:36.958Z,3.50
2023-05-25T12:55:29.245Z,3.63
2023-05-25T12:57:55.863Z,3.60
2023-05-25T13:00:39.676Z,4.45
2023-05-25T13:03:09.713Z,3.97
2023-05-25T13:05:37.841Z,3.28
2023-05-25T13:08:06.370Z,3.10
2023-05-25T13:10:34.110Z,3.20
2023-05-25T13:13:01.285Z,3.03
2023-05-25T13:15:28.739Z,2.90
2023-05-25T13:17:58.294Z,3.22
2023-05-25T13:20:26.515Z,2.65
2023-05-25T13:22:55.868Z,2.95
2023-05-25T13:25:22.824Z,2.90
2023-05-25T13:27:52.792Z,3.05
2023-05-25T13:30:21.967Z,3.35
2023-05-25T13:32:51.430Z,2.60
2023-05-25T13:35:23.546Z,3.17
2023-05-25T13:37:51.256Z,3.38
2023-05-25T13:40:18.387Z,2.92
2023-05-25T13:42:45.094Z,2.92
2023-05-25T13:45:11.872Z,3.00
2023-05-25T13:47:38.833Z,3.00
2023-05-25T13:50:06.189Z,2.78
2023-05-25T13:52:33.270Z,3.28
2023-05-25T13:54:59.840Z,3.00
2023-05-25T13:57:26.489Z,2.80
2023-05-25T13:59:53.090Z,3.08
2023-05-25T14:02:19.749Z,2.80
2023-05-25T14:04:46.577Z,2.83
2023-05-25T14:07:13.157Z,3.00
2023-05-25T14:09:39.900Z,3.10
2023-05-25T14:12:06.915Z,2.60
2023-05-25T14:14:33.756Z,2.75
2023-05-25T14:17:01.410Z,2.92
2023-05-25T14:19:28.906Z,3.22
2023-05-25T14:24:25.013Z,3.00
2023-05-25T14:26:51.570Z,3.40
2023-05-25T14:29:18.171Z,3.40
2023-05-25T14:34:11.271Z,2.72
2023-05-25T14:36:38.054Z,2.95
2023-05-25T14:39:04.690Z,2.70
2023-05-25T14:41:31.235Z,2.72
2023-05-25T14:43:57.835Z,3.00
2023-05-25T14:46:24.469Z,2.60
2023-05-25T14:48:51.051Z,2.53
2023-05-25T14:51:17.606Z,3.15
2023-05-25T14:53:45.006Z,2.60
2023-05-25T14:56:11.628Z,2.92
2023-05-25T14:58:38.200Z,2.72
2023-05-25T15:01:05.137Z,2.50
2023-05-25T15:03:32.689Z,2.88
2023-05-25T15:05:59.380Z,3.83
2023-05-25T15:08:26.087Z,3.03
2023-05-25T15:10:52.760Z,2.42
2023-05-25T15:13:22.491Z,2.50
2023-05-25T15:15:52.090Z,2.95
2023-05-25T15:18:18.810Z,2.97
2023-05-25T15:20:45.505Z,2.50
2023-05-25T15:23:12.055Z,3.25
2023-05-25T15:25:38.685Z,2.80
2023-05-25T15:28:05.536Z,2.50
2023-05-25T15:30:34.175Z,3.13
2023-05-25T15:33:01.783Z,2.45
2023-05-25T15:35:32.205Z,2.92
2023-05-25T15:37:59.642Z,2.83
2023-05-25T15:40:26.473Z,2.80
2023-05-25T15:42:53.326Z,2.63
2023-05-25T15:45:19.894Z,2.97
2023-05-25T15:47:46.499Z,2.65
2023-05-25T15:50:13.243Z,2.80
2023-05-25T15:52:39.819Z,2.90
2023-05-25T15:55:07.058Z,2.88
2023-05-25T15:57:33.639Z,2.97
2023-05-25T16:00:00.246Z,3.03
2023-05-25T16:02:26.884Z,3.00
2023-05-25T16:04:53.444Z,3.15
2023-05-25T16:07:20.078Z,3.17
2023-05-25T16:09:46.702Z,2.92
2023-05-25T16:12:13.295Z,3.20
2023-05-25T16:14:40.706Z,2.85
2023-05-25T16:17:07.528Z,3.05
2023-05-25T16:19:34.133Z,2.88
2023-05-25T16:22:00.750Z,2.85
2023-05-25T16:24:27.342Z,2.92
2023-05-25T16:26:53.870Z,2.85
2023-05-25T16:29:20.669Z,3.00
2023-05-25T16:31:47.249Z,2.70
2023-05-25T16:34:13.825Z,3.20
2023-05-25T16:36:40.486Z,3.33
2023-05-25T16:39:08.078Z,3.28
2023-05-25T16:41:34.788Z,2.90
2023-05-25T16:44:01.700Z,2.95
2023-05-25T16:46:28.395Z,3.20
2023-05-25T16:48:54.999Z,2.83
2023-05-25T16:51:21.673Z,3.00
2023-05-25T16:53:48.369Z,3.05
2023-05-25T16:56:15.347Z,2.90
2023-05-25T16:58:41.932Z,3.22
2023-05-25T17:01:08.542Z,3.42
2023-05-25T17:03:35.266Z,3.15
2023-05-25T17:06:01.831Z,2.88
2023-05-25T17:08:28.531Z,3.15
2023-05-25T17:10:55.296Z,2.92
2023-05-25T17:13:21.841Z,2.88
2023-05-25T17:15:48.902Z,2.67
2023-05-25T17:18:16.006Z,2.85
2023-05-25T17:20:42.717Z,2.90
2023-05-25T17:23:09.639Z,2.90
2023-05-25T17:25:36.520Z,3.50
2023-05-25T17:28:03.145Z,2.97
2023-05-25T17:30:29.796Z,3.17
2023-05-25T17:33:01.496Z,2.92
2023-05-25T17:35:31.159Z,2.70
2023-05-25T17:37:57.779Z,3.10
2023-05-25T17:40:24.395Z,3.45
2023-05-25T17:42:50.980Z,5.25
2023-05-25T17:45:17.617Z,6.03
2023-05-25T17:47:44.254Z,6.90
2023-05-25T17:50:11.017Z,4.10
2023-05-25T17:52:37.588Z,3.20
2023-05-25T17:55:05.704Z,3.40
2023-05-25T17:57:32.338Z,2.88
2023-05-25T17:59:58.984Z,2.53
2023-05-25T18:02:25.842Z,3.00
2023-05-25T18:04:52.520Z,2.72
2023-05-25T18:07:20.482Z,2.60
2023-05-25T18:09:47.043Z,2.85
2023-05-25T18:12:13.612Z,3.30
2023-05-25T18:14:40.194Z,2.72
2023-05-25T18:17:06.924Z,2.75
2023-05-25T18:19:33.566Z,2.90
2023-05-25T18:22:00.464Z,2.92
2023-05-25T18:24:27.913Z,3.20
2023-05-25T18:26:54.568Z,3.30
2023-05-25T18:29:21.197Z,3.33
2023-05-25T18:31:49.002Z,2.90
2023-05-25T18:34:16.090Z,3.10
2023-05-25T18:36:42.802Z,2.95
2023-05-25T18:39:09.499Z,2.92
2023-05-25T18:41:36.101Z,3.10
2023-05-25T18:44:02.682Z,3.17
2023-05-25T18:46:29.633Z,2.83
2023-05-25T18:48:56.601Z,3.20
2023-05-25T18:51:25.808Z,3.20
2023-05-25T18:53:52.487Z,3.22
2023-05-25T18:56:19.182Z,3.20
2023-05-25T18:58:46.061Z,3.45
2023-05-25T19:01:12.647Z,3.88
2023-05-25T19:03:39.266Z,3.30
2023-05-25T19:06:06.090Z,3.75
2023-05-25T19:08:32.780Z,3.25
2023-05-25T19:10:59.497Z,3.80
2023-05-25T19:13:26.125Z,5.13
2023-05-25T19:15:52.726Z,5.05
2023-05-25T19:18:19.398Z,4.30
2023-05-25T19:20:46.262Z,4.38
2023-05-25T19:23:12.957Z,4.55
2023-05-25T19:25:39.551Z,4.18
2023-05-25T19:28:06.956Z,4.18
2023-05-25T19:30:33.549Z,3.85
2023-05-25T19:33:00.352Z,3.90
2023-05-25T19:35:27.138Z,3.45
2023-05-25T19:37:53.742Z,4.40
2023-05-25T19:40:20.471Z,3.90
2023-05-25T19:42:47.079Z,4.03
2023-05-25T19:45:13.703Z,3.28
2023-05-25T19:47:40.618Z,4.18
2023-05-25T19:50:07.862Z,4.00
2023-05-25T19:52:34.508Z,4.13
2023-05-25T19:55:01.102Z,4.40
2023-05-25T19:57:27.747Z,4.63
2023-05-25T19:59:54.356Z,4.30
2023-05-25T20:02:21.391Z,5.20
2023-05-25T20:04:48.018Z,5.15
2023-05-25T20:07:17.852Z,4.90
2023-05-25T20:09:45.157Z,4.78
2023-05-25T20:12:12.014Z,5.30
2023-05-25T20:14:38.597Z,5.75
2023-05-25T20:17:05.128Z,5.38
2023-05-25T20:19:31.716Z,5.63
2023-05-25T20:22:00.165Z,5.85
2023-05-25T20:24:26.758Z,4.97
2023-05-25T20:26:56.776Z,5.07
2023-05-25T20:29:23.939Z,6.40
2023-05-25T20:31:50.926Z,5.53
2023-05-25T20:34:17.851Z,5.50
2023-05-25T20:36:44.659Z,5.75
2023-05-25T20:39:11.435Z,6.30
2023-05-25T20:41:37.997Z,5.85
2023-05-25T20:44:06.613Z,5.60
2023-05-25T20:46:33.997Z,5.85
2023-05-25T20:49:01.126Z,5.70
2023-05-25T20:51:27.725Z,6.50
2023-05-25T20:53:54.439Z,5.55
2023-05-25T20:56:21.570Z,6.05
2023-05-25T20:58:48.269Z,5.90
2023-05-25T21:01:15.398Z,5.95
2023-05-25T21:03:42.097Z,5.97
2023-05-25T21:06:08.704Z,5.50
2023-05-25T21:08:35.528Z,5.93
2023-05-25T21:11:02.094Z,6.03
2023-05-25T21:13:28.736Z,6.22
2023-05-25T21:15:55.845Z,6.13
2023-05-25T21:18:22.533Z,5.95
2023-05-25T21:20:49.298Z,6.78
2023-05-25T21:23:16.312Z,6.45
2023-05-25T21:25:42.951Z,6.15
2023-05-25T21:28:10.448Z,6.20
2023-05-25T21:30:37.083Z,6.32
2023-05-25T21:33:03.808Z,6.75
2023-05-25T21:35:30.573Z,6.63
2023-05-25T21:37:57.166Z,6.32
2023-05-25T21:40:23.823Z,6.10
2023-05-25T21:42:53.343Z,6.65
2023-05-25T21:45:20.416Z,6.57
2023-05-25T21:47:47.005Z,6.57
2023-05-25T21:50:13.589Z,6.65
2023-05-25T21:52:41.474Z,6.72
2023-05-25T21:55:08.541Z,6.72
2023-05-25T21:57:35.096Z,7.40
2023-05-25T22:00:01.889Z,6.68
2023-05-25T22:02:28.535Z,6.68
2023-05-25T22:04:55.164Z,7.55
2023-05-25T22:07:21.985Z,6.95
2023-05-25T22:09:48.587Z,6.68
2023-05-25T22:12:15.166Z,7.43
2023-05-25T22:14:41.772Z,6.95
2023-05-25T22:17:08.493Z,7.80
2023-05-25T22:19:35.140Z,8.18
2023-05-25T22:22:01.926Z,8.43
2023-05-25T22:24:28.530Z,7.50
2023-05-25T22:26:55.092Z,8.00
2023-05-25T22:29:22.463Z,7.50
2023-05-25T22:31:50.628Z,7.70
2023-05-25T22:34:17.230Z,7.95
2023-05-25T22:36:43.808Z,7.75
2023-05-25T22:39:10.515Z,7.90
2023-05-25T22:41:37.108Z,7.90
2023-05-25T22:44:03.681Z,7.97
2023-05-25T22:46:30.313Z,7.80
2023-05-25T22:48:56.934Z,7.53
2023-05-25T22:51:23.495Z,7.82
2023-05-25T22:53:50.065Z,7.63
2023-05-25T22:56:17.011Z,8.15
2023-05-25T22:58:43.590Z,7.53
2023-05-25T23:01:10.200Z,7.93
2023-05-25T23:03:36.986Z,8.32
2023-05-25T23:06:03.714Z,7.97
2023-05-25T23:08:30.554Z,7.95
2023-05-25T23:10:57.091Z,8.45
2023-05-25T23:13:24.289Z,8.18
2023-05-25T23:15:50.982Z,8.25
2023-05-25T23:18:17.598Z,8.35
2023-05-25T23:20:45.007Z,9.35
2023-05-25T23:23:11.981Z,8.18
2023-05-25T23:25:38.639Z,8.63
2023-05-25T23:28:05.185Z,8.27
2023-05-25T23:30:31.775Z,8.43
2023-05-25T23:32:58.578Z,9.27
2023-05-25T23:35:25.238Z,8.10
2023-05-25T23:37:52.137Z,8.27
2023-05-25T23:40:19.090Z,7.90
2023-05-25T23:42:45.955Z,8.32
2023-05-25T23:45:13.609Z,8.20
2023-05-25T23:47:40.543Z,8.93
2023-05-25T23:50:07.452Z,8.93
2023-05-25T23:52:34.036Z,8.52
2023-05-25T23:55:00.604Z,8.52
2023-05-25T23:57:27.159Z,9.27
2023-05-25T23:59:53.730Z,8.63
